עמוד ראשי
METAR-TAF:

METAR-TAF

שדות תעופה :

Barrow, אלסקה, ארצות הברית

קו רוחב: 71-17-07N, קו אורך: 156-45-57W, גובה: 13מטר

תצפית מזג אוויר נוכחית

הדו"ח נערך לפני 1 שעות ו 8דקות, בשעה 00:53 UTC
רוח 11קשר מכיוון מזרח/צפון-מזרח
טמפרטורת 6 צלסיוס
לחות 70%
לחץ 1022 hPa
ראות: 16.1קילומטר
שמיים נקיים

METAR: PABR 200053Z 06011KT 10SM CLR 06/01 A3018

זמן: 18:01 (02:01 UTC)

תחזית

הדו"ח נערך לפני 2 שעות ו 21דקות, בשעה 23:40 UTC
תחזית בתוקף מ 20 ב 00 UTC עד 20 ב 24 UTC
רוח 11קשר מכיוון מזרח/צפון-מזרח
ראות: 10קילומטר
שמיים נקיים
מ 20 ב 0300UTC
רוח 9קשר מכיוון מזרח/צפון-מזרח
ראות: 8.0קילומטר
עננים בינוניים בגובה 800רגל
אד
מ 20 ב 0800UTC
רוח 7קשר מכיוון מזרח/צפון-מזרח
ראות: 1.6קילומטר
עננים בינוניים בגובה 400רגל
אד
מ 20 ב 1800UTC
רוח 7קשר מכיוון מזרח/צפון-מזרח
ראות: 6.4קילומטר
עננים פזורים בגובה 700רגל
עננים בינוניים בגובה 1500רגל
אד,

TAF: PABR 192340Z 2000/2024 06011KT P6SM SKC FM200300 06009KT 5SM BR BKN008 FM200800 06007KT 1SM BR BKN004 FM201800 06007KT 4SM BR SCT007 BKN015 AMD NOT SKED

תצפיות ותחזיות מזג אוויר לגבי יותר מ- 4,000 שדות תעופה ברחבי העולם. דוחות METAR ו- TAF.

התחנות הזמינות מסומנות בנקודות צהובות ואדומות על גבי המפה.

העבר את העכבר לנקודה הצבעונית על מנת לראות את שם התחנה.

לאחר מכן, לחץ כדי לראות את תוכן ואת תחזיות מזג האוויר.

כדי לשנות את המפה: לחץ על הכפתורים הירוקים עם הפלוס השחור כדי להתקרב; על הכפתור הירוק עם המקף כדי להתרחק; או בחיצים הירוקים למפות סמוכות.


METAR-TAF: